Oslo, MN

04:54 PM CST on November 25, 2014 (GMT -0600)
Grafton Municipal | Change Station
CLOSE
Current Station
Airport
Location: Grafton,
Elevation: 823 ft
Nearby Weather Stations
Active Advisory: Special Statement Active Notice: Public Information Statement

Elev 823 ft 48.40 °N, 97.37 °W | Updated 19 minutes ago

Toe getrek
Toe getrek
18 °F
Feels Like 6 °F
N
9
Wind Veranderlik Wind from NO

Vandag
High -- | Low -- °F
--% Chance of Precip.
Yesterday
High -- | Low -- °F
Precip. -- in
7:50 AM 4:40 PM
Waxing Crescent, 14% visible
Druk 29.98 in
Sigbaarheid 10.0 myle
Wolke Toe getrek 2100 ft
Wind afkoel 6 °F
Dou-punt 12 °F
Humiditeit 79%
Rainfall 0.00 in
Snow Depth Not available.
UV 0 out of 12
Pollen .10 out of 12
Air Quality Not available.
Flu Activity Not available.
METAR KGAF 252235Z AUTO 04008KT 10SM OVC021 M08/M11 A2998 RMK AO2

More Conditions Fewer Conditions

Druk 29.98 in
Sigbaarheid 10.0 myle
Wolke Toe getrek 2100 ft
Wind afkoel 6 °F
Dou-punt 12 °F
Humiditeit 79%
Rainfall 0.00 in
Snow Depth Not available.
UV 0 out of 12
Pollen .10 out of 12
Air Quality Not available.
Flu Activity Not available.
METAR KGAF 252235Z AUTO 04008KT 10SM OVC021 M08/M11 A2998 RMK AO2

More Conditions Fewer Conditions

10-Day Weather Forecast

Almanac

Astronomy

Nov. 25, 2014 Rise Set
Ware Tyd
Civil Twilight
Nautical Twilight
Astronomical Twilight
Maan
Length Of Visible Light
Length of Day
Tomorrow will be .
, % of the Moon is Illuminated

Today's Extremes

State Highs State Lows

Community

WunderPhotos

Upload Photos

1,773,609 photos uploaded!

WunderBlogs® & News

Nearby

Air Quality

  Air Quality AQ Index Pollutant
Not available.

Snow Depth

Station Depth Elevation

Earthquake Activity

Stad Distance Mag. Time & Date
Minimum magnitude displayed is 2.5.

Coastal Water Temperatures

Plek Temperatuur

Nearby Weather Stations